createdAt,value
2019-06-10T00:01:36.952Z,9.67
2019-06-10T00:04:08.780Z,10.13
2019-06-10T00:06:38.148Z,9.80
2019-06-10T00:09:11.544Z,10.13
2019-06-10T00:11:41.064Z,9.40
2019-06-10T00:14:10.892Z,9.60
2019-06-10T00:16:41.577Z,9.57
2019-06-10T00:19:12.762Z,9.60
2019-06-10T00:21:43.307Z,10.43
2019-06-10T00:24:12.806Z,10.77
2019-06-10T00:26:42.226Z,10.27
2019-06-10T00:29:12.133Z,10.23
2019-06-10T00:31:41.870Z,9.90
2019-06-10T00:34:12.452Z,10.50
2019-06-10T00:36:42.121Z,10.80
2019-06-10T00:39:13.549Z,10.53
2019-06-10T00:41:43.190Z,10.07
2019-06-10T00:44:12.952Z,9.57
2019-06-10T00:46:43.548Z,9.30
2019-06-10T00:49:14.775Z,10.50
2019-06-10T00:51:44.612Z,10.07
2019-06-10T00:54:15.767Z,10.20
2019-06-10T00:56:45.429Z,9.33
2019-06-10T00:59:15.478Z,10.53
2019-06-10T01:01:45.342Z,9.53
2019-06-10T01:04:16.405Z,10.20
2019-06-10T01:06:47.338Z,10.43
2019-06-10T01:09:18.212Z,9.40
2019-06-10T01:11:47.713Z,10.77
2019-06-10T01:14:17.279Z,9.90
2019-06-10T01:16:46.888Z,10.13
2019-06-10T01:19:16.397Z,11.03
2019-06-10T01:21:45.965Z,10.73
2019-06-10T01:24:15.506Z,10.40
2019-06-10T01:26:46.043Z,10.20
2019-06-10T01:29:15.695Z,10.83
2019-06-10T01:31:45.251Z,10.37
2019-06-10T01:34:15.142Z,9.83
2019-06-10T01:36:45.949Z,10.30
2019-06-10T01:39:16.823Z,10.70
2019-06-10T01:41:46.697Z,10.67
2019-06-10T01:44:17.590Z,10.73
2019-06-10T01:46:47.484Z,12.30
2019-06-10T01:49:18.137Z,12.40
2019-06-10T01:51:47.971Z,11.50
2019-06-10T01:54:18.467Z,12.53
2019-06-10T01:56:50.859Z,12.40
2019-06-10T01:59:21.992Z,12.07
2019-06-10T02:02:04.903Z,12.27
2019-06-10T02:04:35.444Z,12.33
2019-06-10T02:07:05.043Z,11.83
2019-06-10T02:09:34.543Z,11.33
2019-06-10T02:12:04.315Z,12.37
2019-06-10T02:14:33.852Z,11.13
2019-06-10T02:17:03.426Z,11.13
2019-06-10T02:19:32.994Z,11.03
2019-06-10T02:22:02.728Z,11.27
2019-06-10T02:24:32.226Z,10.97
2019-06-10T02:27:01.795Z,11.37
2019-06-10T02:29:31.330Z,11.97
2019-06-10T02:32:04.840Z,11.97
2019-06-10T02:34:37.419Z,11.90
2019-06-10T02:37:04.879Z,11.77
2019-06-10T02:39:38.667Z,12.97
2019-06-10T02:42:07.904Z,13.50
2019-06-10T02:44:37.963Z,12.87
2019-06-10T02:47:07.812Z,11.63
2019-06-10T02:49:55.648Z,12.73
2019-06-10T02:52:20.176Z,12.83
2019-06-10T02:54:49.273Z,13.40
2019-06-10T02:57:25.733Z,13.30
2019-06-10T02:59:54.439Z,12.30
2019-06-10T03:02:29.202Z,12.53
2019-06-10T03:04:54.713Z,12.77
2019-06-10T03:07:28.744Z,13.10
2019-06-10T03:09:55.439Z,11.67
2019-06-10T03:12:25.933Z,12.43
2019-06-10T03:14:55.545Z,13.47
2019-06-10T03:17:26.790Z,13.77
2019-06-10T03:19:57.492Z,13.70
2019-06-10T03:22:28.353Z,13.10
2019-06-10T03:24:58.357Z,12.70
2019-06-10T03:27:27.984Z,13.00
2019-06-10T03:29:57.590Z,13.47
2019-06-10T03:32:33.197Z,13.30
2019-06-10T03:34:58.646Z,12.50
2019-06-10T03:37:28.121Z,12.50
2019-06-10T03:39:57.686Z,13.00
2019-06-10T03:42:28.221Z,13.33
2019-06-10T03:44:57.819Z,13.17
2019-06-10T03:47:28.775Z,13.57
2019-06-10T03:49:58.603Z,13.10
2019-06-10T03:52:28.620Z,12.73
2019-06-10T03:54:58.508Z,13.13
2019-06-10T03:57:28.699Z,14.10
2019-06-10T03:59:58.315Z,14.10
2019-06-10T04:02:28.510Z,14.27
2019-06-10T04:04:58.456Z,15.13
2019-06-10T04:07:30.991Z,16.07
2019-06-10T04:09:59.195Z,17.20
2019-06-10T04:12:29.166Z,17.53
2019-06-10T04:14:58.984Z,14.50
2019-06-10T04:17:28.841Z,15.50
2019-06-10T04:20:09.311Z,16.17
2019-06-10T04:22:29.869Z,15.37
2019-06-10T04:25:02.998Z,15.23
2019-06-10T04:27:32.864Z,14.17
2019-06-10T04:30:03.358Z,14.27
2019-06-10T04:32:33.221Z,14.73
2019-06-10T04:35:02.782Z,14.27
2019-06-10T04:37:32.610Z,14.07
2019-06-10T04:40:02.869Z,13.93
2019-06-10T04:42:33.094Z,14.27
2019-06-10T04:45:03.271Z,13.80
2019-06-10T04:47:33.427Z,14.17
2019-06-10T04:50:20.547Z,13.53
2019-06-10T04:52:36.838Z,12.97
2019-06-10T04:58:02.537Z,13.80
2019-06-10T05:00:33.125Z,13.60
2019-06-10T05:03:11.978Z,18.53
2019-06-10T05:05:37.592Z,13.47
2019-06-10T05:08:07.220Z,12.53
2019-06-10T05:10:36.909Z,13.77
2019-06-10T05:13:06.906Z,13.93
2019-06-10T05:15:36.647Z,12.80
2019-06-10T05:18:06.337Z,11.60
2019-06-10T05:20:51.330Z,11.90
2019-06-10T05:23:07.884Z,12.20
2019-06-10T05:25:39.897Z,14.73
2019-06-10T05:28:12.267Z,11.97
2019-06-10T05:30:42.712Z,9.53
2019-06-10T05:33:13.472Z,8.93
2019-06-10T05:35:43.594Z,9.47
2019-06-10T05:38:13.143Z,9.57
2019-06-10T05:40:42.877Z,9.07
2019-06-10T05:43:13.111Z,8.70
2019-06-10T05:45:43.398Z,6.33
2019-06-10T05:48:16.680Z,6.40
2019-06-10T05:50:59.023Z,6.27
2019-06-10T05:53:15.759Z,6.80
2019-06-10T05:55:45.297Z,4.53
2019-06-10T05:58:15.869Z,4.03
2019-06-10T06:00:45.491Z,4.97
2019-06-10T06:03:15.063Z,4.43
2019-06-10T06:05:44.665Z,3.93
2019-06-10T06:08:14.420Z,4.17
2019-06-10T06:10:44.159Z,4.23
2019-06-10T06:13:13.949Z,7.67
2019-06-10T06:15:43.757Z,3.70
2019-06-10T06:18:14.958Z,3.07
2019-06-10T06:20:44.607Z,3.70
2019-06-10T06:23:14.436Z,5.23
2019-06-10T06:25:47.064Z,3.60
2019-06-10T06:28:16.330Z,3.43
2019-06-10T06:30:46.208Z,3.10
2019-06-10T06:33:15.691Z,3.60
2019-06-10T06:35:46.666Z,4.50
2019-06-10T06:38:16.425Z,3.77
2019-06-10T06:40:46.129Z,19.50
2019-06-10T06:43:15.777Z,4.07
2019-06-10T06:45:45.671Z,4.20
2019-06-10T06:48:15.383Z,3.87
2019-06-10T06:51:00.159Z,3.60
2019-06-10T06:53:33.099Z,4.20
2019-06-10T06:55:56.074Z,4.00
2019-06-10T06:58:25.605Z,7.10
2019-06-10T07:01:04.426Z,5.90
2019-06-10T07:03:26.560Z,4.57
2019-06-10T07:05:56.851Z,4.30
2019-06-10T07:08:27.990Z,6.63
2019-06-10T07:10:59.290Z,3.70
2019-06-10T07:13:28.829Z,4.53
2019-06-10T07:15:58.391Z,3.70
2019-06-10T07:18:27.959Z,3.93
2019-06-10T07:20:57.531Z,3.23
2019-06-10T07:23:27.022Z,3.60
2019-06-10T07:25:56.699Z,3.10
2019-06-10T07:28:26.212Z,3.37
2019-06-10T07:30:55.850Z,3.00
2019-06-10T07:33:25.527Z,3.30
2019-06-10T07:35:56.613Z,3.97
2019-06-10T07:38:26.477Z,4.50
2019-06-10T07:40:56.015Z,4.03
2019-06-10T07:43:25.809Z,4.57
2019-06-10T07:45:55.750Z,3.60
2019-06-10T07:48:25.233Z,3.40
2019-06-10T07:50:55.731Z,3.43
2019-06-10T07:53:25.561Z,4.10
2019-06-10T07:55:55.049Z,3.27
2019-06-10T07:58:24.536Z,3.97
2019-06-10T08:00:54.144Z,2.97
2019-06-10T08:03:23.881Z,3.20
2019-06-10T08:05:53.436Z,3.53
2019-06-10T08:08:23.563Z,3.57
2019-06-10T08:10:54.146Z,3.40
2019-06-10T08:13:28.807Z,3.70
2019-06-10T08:15:58.416Z,4.00
2019-06-10T08:18:28.050Z,4.03
2019-06-10T08:20:57.873Z,4.10
2019-06-10T08:23:27.701Z,4.00
2019-06-10T08:25:57.911Z,3.97
2019-06-10T08:28:27.863Z,3.70
2019-06-10T08:30:57.489Z,3.40
2019-06-10T08:37:14.457Z,3.67
2019-06-10T08:39:45.928Z,4.23
2019-06-10T08:42:15.426Z,3.37
2019-06-10T08:44:47.243Z,3.20
2019-06-10T08:47:17.660Z,3.17
2019-06-10T08:49:55.293Z,3.27
2019-06-10T08:52:24.986Z,3.27
2019-06-10T08:54:56.630Z,3.50
2019-06-10T08:57:26.454Z,3.20
2019-06-10T08:59:56.030Z,3.57
2019-06-10T09:02:35.604Z,3.73
2019-06-10T09:05:05.876Z,3.77
2019-06-10T09:07:35.426Z,3.83
2019-06-10T09:10:06.355Z,3.83
2019-06-10T09:12:36.720Z,4.73
2019-06-10T09:15:07.606Z,4.17
2019-06-10T09:17:37.257Z,4.90
2019-06-10T09:20:09.263Z,4.50
2019-06-10T09:22:41.181Z,4.13
2019-06-10T09:25:12.399Z,3.87
2019-06-10T09:27:45.936Z,4.77
2019-06-10T09:30:14.483Z,4.50
2019-06-10T09:32:48.447Z,4.50
2019-06-10T09:35:15.879Z,4.37
2019-06-10T09:37:48.360Z,3.60
2019-06-10T09:40:18.265Z,4.30
2019-06-10T09:42:50.763Z,4.27
2019-06-10T09:45:19.490Z,4.07
2019-06-10T09:47:58.374Z,3.80
2019-06-10T09:50:25.485Z,3.80
2019-06-10T09:52:57.115Z,4.00
2019-06-10T09:55:29.730Z,3.67
2019-06-10T09:58:00.073Z,4.30
2019-06-10T10:00:47.376Z,4.13
2019-06-10T10:03:14.017Z,3.90
2019-06-10T10:05:55.765Z,3.90
2019-06-10T10:08:15.662Z,3.90
2019-06-10T10:10:49.451Z,4.73
2019-06-10T10:13:16.867Z,4.40
2019-06-10T10:15:48.117Z,3.93
2019-06-10T10:18:17.798Z,4.17
2019-06-10T10:20:49.779Z,3.67
2019-06-10T10:23:18.699Z,4.17
2019-06-10T10:25:52.008Z,3.53
2019-06-10T10:28:23.050Z,4.20
2019-06-10T10:30:55.846Z,4.70
2019-06-10T10:33:29.531Z,4.27
2019-06-10T10:35:55.079Z,4.23
2019-06-10T10:38:24.833Z,4.10
2019-06-10T10:40:58.474Z,3.40
2019-06-10T10:43:33.164Z,3.47
2019-06-10T10:46:00.182Z,3.07
2019-06-10T10:48:28.794Z,3.63
2019-06-10T10:50:58.355Z,3.93
2019-06-10T10:53:28.108Z,3.63
2019-06-10T10:55:59.045Z,3.90
2019-06-10T10:58:28.623Z,3.77
2019-06-10T11:00:58.235Z,3.30
2019-06-10T11:03:28.071Z,3.77
2019-06-10T11:06:00.912Z,3.40
2019-06-10T11:08:29.334Z,3.70
2019-06-10T11:11:04.553Z,4.03
2019-06-10T11:13:36.549Z,3.73
2019-06-10T11:16:06.655Z,3.77
2019-06-10T11:18:36.262Z,3.70
2019-06-10T11:21:05.972Z,3.77
2019-06-10T11:23:36.132Z,4.20
2019-06-10T11:26:05.968Z,3.80
2019-06-10T11:28:35.597Z,3.30
2019-06-10T11:31:05.858Z,3.27
2019-06-10T11:33:35.475Z,3.40
2019-06-10T11:36:05.173Z,3.43
2019-06-10T11:38:35.454Z,3.80
2019-06-10T11:41:05.499Z,3.47
2019-06-10T11:43:35.769Z,3.90
2019-06-10T11:46:08.395Z,3.53
2019-06-10T11:52:00.332Z,3.50
2019-06-10T11:54:32.738Z,3.53
2019-06-10T11:57:58.161Z,3.67
2019-06-10T11:59:48.011Z,3.50
2019-06-10T12:02:17.754Z,3.27
2019-06-10T12:04:48.368Z,3.13
2019-06-10T12:07:19.208Z,3.60
2019-06-10T12:09:56.993Z,3.70
2019-06-10T12:12:26.132Z,3.50
2019-06-10T12:14:59.275Z,3.73
2019-06-10T12:17:42.018Z,4.13
2019-06-10T12:20:03.237Z,3.70
2019-06-10T12:22:33.111Z,4.10
2019-06-10T12:25:30.445Z,4.03
2019-06-10T12:27:36.219Z,4.30
2019-06-10T12:30:13.264Z,4.40
2019-06-10T12:32:43.659Z,4.20
2019-06-10T12:35:13.948Z,4.13
2019-06-10T12:37:43.797Z,4.67
2019-06-10T12:40:14.424Z,4.67
2019-06-10T12:42:44.306Z,4.07
2019-06-10T12:45:14.875Z,4.90
2019-06-10T12:47:44.464Z,4.10
2019-06-10T12:50:15.742Z,4.67
2019-06-10T12:52:47.028Z,4.70
2019-06-10T12:55:18.677Z,4.87
2019-06-10T12:57:52.155Z,4.00
2019-06-10T13:00:26.457Z,4.67
2019-06-10T13:02:57.906Z,5.23
2019-06-10T13:05:27.610Z,4.60
2019-06-10T13:07:59.790Z,5.17
2019-06-10T13:10:42.921Z,4.47
2019-06-10T13:13:12.180Z,5.43
2019-06-10T13:15:43.394Z,4.43
2019-06-10T13:18:18.937Z,4.20
2019-06-10T13:20:45.325Z,4.27
2019-06-10T13:23:23.629Z,4.70
2019-06-10T13:25:54.230Z,4.43
2019-06-10T13:28:22.231Z,4.30
2019-06-10T13:30:54.625Z,3.60
2019-06-10T13:33:24.894Z,3.87
2019-06-10T13:35:54.650Z,4.07
2019-06-10T13:38:25.847Z,4.20
2019-06-10T13:40:57.625Z,4.20
2019-06-10T13:43:28.722Z,4.00
2019-06-10T13:45:58.298Z,3.87
2019-06-10T13:48:27.955Z,4.37
2019-06-10T13:50:58.654Z,4.83
2019-06-10T13:53:28.394Z,5.27
2019-06-10T13:56:23.548Z,4.27
2019-06-10T13:58:29.477Z,5.33
2019-06-10T14:00:59.817Z,4.73
2019-06-10T14:03:32.404Z,5.10
2019-06-10T14:06:10.779Z,5.30
2019-06-10T14:08:33.459Z,5.10
2019-06-10T14:11:06.746Z,3.70
2019-06-10T14:13:34.608Z,3.47
2019-06-10T14:16:05.488Z,3.17
2019-06-10T14:18:35.518Z,2.97
2019-06-10T14:21:09.279Z,3.20
2019-06-10T14:23:42.546Z,3.17
2019-06-10T14:26:16.452Z,3.70
2019-06-10T14:28:47.914Z,3.70
2019-06-10T14:31:38.311Z,3.70
2019-06-10T14:33:54.461Z,4.37
2019-06-10T14:36:29.074Z,3.93
2019-06-10T14:38:58.660Z,4.17
2019-06-10T14:41:32.524Z,3.67
2019-06-10T14:44:01.447Z,4.20
2019-06-10T14:46:32.978Z,4.10
2019-06-10T14:49:02.451Z,4.17
2019-06-10T14:51:32.629Z,3.87
2019-06-10T14:54:03.199Z,3.57
2019-06-10T14:56:33.319Z,3.70
2019-06-10T14:59:03.543Z,4.20
2019-06-10T15:01:33.156Z,4.63
2019-06-10T15:04:03.079Z,4.17
2019-06-10T15:06:33.989Z,4.50
2019-06-10T15:09:05.693Z,4.33
2019-06-10T15:11:35.975Z,4.50
2019-06-10T15:14:05.695Z,4.67
2019-06-10T15:16:35.191Z,4.83
2019-06-10T15:19:14.599Z,4.63
2019-06-10T15:21:36.212Z,4.40
2019-06-10T15:24:05.879Z,4.63
2019-06-10T15:26:35.606Z,4.47
2019-06-10T15:29:05.367Z,4.27
2019-06-10T15:31:35.009Z,4.87
2019-06-10T15:34:06.916Z,5.10
2019-06-10T15:36:36.645Z,4.63
2019-06-10T15:39:08.967Z,5.00
2019-06-10T15:41:38.804Z,5.53
2019-06-10T15:44:09.681Z,5.00
2019-06-10T15:46:39.325Z,6.30
2019-06-10T15:49:10.456Z,6.73
2019-06-10T15:51:40.661Z,6.83
2019-06-10T15:54:13.044Z,6.50
2019-06-10T15:56:50.045Z,6.33
2019-06-10T15:59:15.337Z,6.20
2019-06-10T16:01:44.640Z,7.03
2019-06-10T16:04:17.221Z,6.63
2019-06-10T16:06:47.052Z,6.97
2019-06-10T16:09:16.955Z,5.60
2019-06-10T16:11:47.748Z,6.10
2019-06-10T16:14:18.671Z,5.30
2019-06-10T16:16:48.423Z,7.20
2019-06-10T16:19:19.532Z,5.53
2019-06-10T16:21:49.666Z,5.33
2019-06-10T16:24:24.090Z,5.87
2019-06-10T16:26:52.622Z,6.30
2019-06-10T16:29:24.214Z,6.47
2019-06-10T16:31:53.655Z,8.00
2019-06-10T16:34:27.280Z,24.07
2019-06-10T16:36:54.549Z,6.83
2019-06-10T16:39:26.467Z,6.50
2019-06-10T16:41:55.423Z,14.13
2019-06-10T16:44:28.006Z,6.07
2019-06-10T16:46:56.256Z,6.60
2019-06-10T16:49:25.813Z,5.27
2019-06-10T16:51:56.368Z,5.83
2019-06-10T16:54:27.141Z,6.03
2019-06-10T16:56:56.971Z,6.23
2019-06-10T16:59:27.565Z,6.40
2019-06-10T17:01:57.492Z,6.67
2019-06-10T17:04:27.719Z,6.30
2019-06-10T17:06:57.631Z,6.20
2019-06-10T17:09:27.892Z,6.07
2019-06-10T17:11:58.633Z,6.40
2019-06-10T17:14:28.821Z,6.80
2019-06-10T17:16:58.526Z,7.70
2019-06-10T17:19:29.959Z,7.27
2019-06-10T17:21:59.675Z,6.70
2019-06-10T17:24:30.775Z,6.97
2019-06-10T17:27:02.581Z,7.57
2019-06-10T17:29:51.997Z,7.20
2019-06-10T17:32:23.883Z,6.20
2019-06-10T17:34:53.299Z,7.07
2019-06-10T17:37:22.922Z,5.93
2019-06-10T17:39:56.882Z,5.73
2019-06-10T17:42:30.896Z,6.10
2019-06-10T17:44:58.042Z,6.03
2019-06-10T17:47:28.757Z,6.20
2019-06-10T17:49:59.120Z,6.80
2019-06-10T17:52:28.671Z,6.43
2019-06-10T17:54:58.328Z,6.50
2019-06-10T17:57:28.724Z,6.33
2019-06-10T18:00:00.303Z,6.90
2019-06-10T18:02:31.153Z,7.40
2019-06-10T18:05:03.250Z,7.47
2019-06-10T18:07:35.754Z,7.53
2019-06-10T18:10:07.730Z,8.27
2019-06-10T18:12:39.285Z,8.40
2019-06-10T18:15:09.290Z,9.27
2019-06-10T18:17:38.799Z,7.80
2019-06-10T18:20:08.957Z,7.80
2019-06-10T18:22:38.562Z,8.70
2019-06-10T18:25:08.564Z,8.00
2019-06-10T18:27:38.151Z,7.80
2019-06-10T18:30:11.471Z,7.80
2019-06-10T18:32:39.858Z,8.17
2019-06-10T18:35:10.022Z,7.73
2019-06-10T18:37:39.690Z,8.47
2019-06-10T18:40:14.466Z,8.17
2019-06-10T18:42:43.230Z,8.33
2019-06-10T18:45:13.759Z,8.23
2019-06-10T18:47:43.516Z,7.50
2019-06-10T18:50:15.964Z,8.60
2019-06-10T18:52:45.649Z,7.73
2019-06-10T18:55:17.526Z,7.63
2019-06-10T18:57:47.028Z,7.80
2019-06-10T19:00:17.012Z,7.40
2019-06-10T19:02:46.510Z,8.23
2019-06-10T19:05:16.648Z,7.90
2019-06-10T19:07:46.931Z,8.90
2019-06-10T19:10:17.164Z,8.77
2019-06-10T19:12:47.859Z,7.93
2019-06-10T19:15:18.896Z,9.03
2019-06-10T19:17:50.380Z,8.50
2019-06-10T19:20:20.633Z,8.57
2019-06-10T19:22:52.587Z,8.63
2019-06-10T19:25:21.849Z,8.07
2019-06-10T19:27:52.975Z,9.63
2019-06-10T19:30:23.375Z,8.93
2019-06-10T19:32:53.219Z,10.03
2019-06-10T19:35:22.896Z,10.00
2019-06-10T19:37:52.529Z,8.40
2019-06-10T19:40:22.738Z,8.77
2019-06-10T19:42:52.589Z,8.07
2019-06-10T19:45:23.777Z,7.90
2019-06-10T19:47:56.603Z,8.23
2019-06-10T19:50:24.694Z,8.23
2019-06-10T19:52:55.754Z,9.73
2019-06-10T19:55:25.574Z,9.47
2019-06-10T19:57:55.349Z,10.70
2019-06-10T20:00:24.925Z,11.97
2019-06-10T20:02:54.458Z,12.53
2019-06-10T20:05:25.471Z,14.63
2019-06-10T20:07:54.983Z,13.20
2019-06-10T20:10:24.591Z,12.70
2019-06-10T20:12:55.446Z,11.27
2019-06-10T20:15:25.824Z,10.53
2019-06-10T20:17:55.632Z,9.77
2019-06-10T20:20:26.574Z,8.83
2019-06-10T20:22:57.573Z,9.60
2019-06-10T20:25:27.323Z,9.53
2019-06-10T20:27:56.890Z,7.20
2019-06-10T20:30:28.878Z,7.50
2019-06-10T20:32:58.034Z,12.90
2019-06-10T20:35:27.452Z,14.70
2019-06-10T20:37:56.893Z,121.60
2019-06-10T20:40:26.507Z,57.67
2019-06-10T20:42:56.087Z,22.07
2019-06-10T20:45:25.591Z,4.93
2019-06-10T20:47:55.014Z,6.93
2019-06-10T20:50:24.593Z,7.50
2019-06-10T20:52:54.102Z,6.83
2019-06-10T20:55:39.789Z,6.43
2019-06-10T20:58:03.311Z,7.20
2019-06-10T21:00:35.029Z,6.30
2019-06-10T21:03:05.842Z,5.30
2019-06-10T21:05:35.646Z,4.70
2019-06-10T21:08:06.340Z,5.10
2019-06-10T21:10:37.405Z,5.60
2019-06-10T21:13:07.883Z,5.57
2019-06-10T21:15:38.141Z,5.93
2019-06-10T21:18:07.708Z,4.57
2019-06-10T21:20:37.390Z,4.43
2019-06-10T21:23:06.947Z,4.27
2019-06-10T21:25:36.580Z,4.23
2019-06-10T21:28:06.045Z,4.70
2019-06-10T21:30:41.761Z,4.97
2019-06-10T21:33:07.336Z,5.07
2019-06-10T21:35:36.826Z,5.83
2019-06-10T21:38:06.317Z,6.67
2019-06-10T21:40:36.942Z,6.30
2019-06-10T21:43:06.506Z,7.07
2019-06-10T21:45:36.079Z,6.47
2019-06-10T21:48:06.070Z,6.63
2019-06-10T21:50:36.705Z,6.33
2019-06-10T21:53:06.465Z,5.57
2019-06-10T21:55:36.125Z,6.33
2019-06-10T21:58:05.680Z,5.80
2019-06-10T22:01:03.265Z,5.50
2019-06-10T22:03:23.446Z,5.00
2019-06-10T22:05:53.803Z,5.50
2019-06-10T22:08:23.615Z,4.97
2019-06-10T22:10:55.091Z,5.13
2019-06-10T22:13:26.586Z,4.37
2019-06-10T22:15:57.213Z,4.80
2019-06-10T22:18:27.528Z,4.77
2019-06-10T22:20:57.780Z,5.13
2019-06-10T22:23:27.881Z,4.50
2019-06-10T22:25:58.747Z,5.00
2019-06-10T22:28:28.462Z,4.90
2019-06-10T22:31:15.207Z,5.33
2019-06-10T22:33:29.694Z,4.77
2019-06-10T22:35:59.354Z,5.20
2019-06-10T22:38:28.849Z,5.33
2019-06-10T22:40:59.301Z,5.47
2019-06-10T22:43:29.113Z,5.03
2019-06-10T22:45:59.925Z,4.73
2019-06-10T22:48:29.570Z,4.77
2019-06-10T22:50:59.562Z,5.17
2019-06-10T22:53:29.404Z,4.80
2019-06-10T22:55:59.307Z,4.97
2019-06-10T22:58:28.915Z,4.80
2019-06-10T23:00:58.492Z,4.40
2019-06-10T23:03:28.066Z,4.07
2019-06-10T23:05:58.523Z,4.47
2019-06-10T23:08:28.324Z,4.70
2019-06-10T23:10:58.533Z,4.77
2019-06-10T23:13:29.516Z,4.73
2019-06-10T23:15:59.820Z,5.33
2019-06-10T23:18:29.430Z,4.73
2019-06-10T23:20:59.707Z,4.30
2019-06-10T23:23:32.585Z,4.47
2019-06-10T23:26:02.926Z,5.03
2019-06-10T23:28:32.882Z,4.47
2019-06-10T23:31:05.290Z,4.30
2019-06-10T23:33:33.812Z,4.40
2019-06-10T23:36:04.043Z,4.53
2019-06-10T23:38:34.118Z,4.00
2019-06-10T23:41:03.942Z,4.23
2019-06-10T23:43:33.801Z,3.90
2019-06-10T23:46:04.330Z,4.03
2019-06-10T23:48:34.357Z,3.50
2019-06-10T23:51:05.065Z,3.43
2019-06-10T23:53:35.796Z,3.80
2019-06-10T23:56:05.437Z,3.87
2019-06-10T23:58:34.969Z,3.97
